createdAt,value
2019-02-07T00:01:43.449Z,14.57
2019-02-07T00:04:12.641Z,13.80
2019-02-07T00:06:41.928Z,14.10
2019-02-07T00:09:11.512Z,14.10
2019-02-07T00:11:41.404Z,13.77
2019-02-07T00:14:10.729Z,13.90
2019-02-07T00:16:40.121Z,14.10
2019-02-07T00:19:09.482Z,13.83
2019-02-07T00:21:38.854Z,13.50
2019-02-07T00:24:08.337Z,13.63
2019-02-07T00:26:37.805Z,13.90
2019-02-07T00:29:07.186Z,13.80
2019-02-07T00:31:36.754Z,12.73
2019-02-07T00:34:06.441Z,13.70
2019-02-07T00:36:35.701Z,13.50
2019-02-07T00:39:07.484Z,13.77
2019-02-07T00:41:37.422Z,13.33
2019-02-07T00:44:06.966Z,14.27
2019-02-07T00:46:36.288Z,13.57
2019-02-07T00:49:05.733Z,14.00
2019-02-07T00:51:34.986Z,14.90
2019-02-07T00:54:04.791Z,14.90
2019-02-07T00:56:34.594Z,14.00
2019-02-07T00:59:04.276Z,14.97
2019-02-07T01:01:33.564Z,14.03
2019-02-07T01:04:02.869Z,15.47
2019-02-07T01:06:32.217Z,14.03
2019-02-07T01:09:01.624Z,15.40
2019-02-07T01:11:30.895Z,14.33
2019-02-07T01:14:00.256Z,13.80
2019-02-07T01:16:29.609Z,14.00
2019-02-07T01:18:59.266Z,14.87
2019-02-07T01:21:28.643Z,15.40
2019-02-07T01:23:58.204Z,13.77
2019-02-07T01:26:27.478Z,15.00
2019-02-07T01:28:56.765Z,14.27
2019-02-07T01:31:26.007Z,13.47
2019-02-07T01:33:55.214Z,13.97
2019-02-07T01:36:24.521Z,15.33
2019-02-07T01:38:53.961Z,14.73
2019-02-07T01:41:23.349Z,14.33
2019-02-07T01:43:52.895Z,16.27
2019-02-07T01:46:22.244Z,14.23
2019-02-07T01:48:51.525Z,15.10
2019-02-07T01:51:20.969Z,14.37
2019-02-07T01:53:50.221Z,13.87
2019-02-07T01:56:19.742Z,15.33
2019-02-07T01:58:48.933Z,14.40
2019-02-07T02:01:18.103Z,15.23
2019-02-07T02:03:47.438Z,15.33
2019-02-07T02:06:16.717Z,15.73
2019-02-07T02:08:46.044Z,14.80
2019-02-07T02:11:15.737Z,15.53
2019-02-07T02:13:45.096Z,14.53
2019-02-07T02:16:14.742Z,13.93
2019-02-07T02:18:44.176Z,14.30
2019-02-07T02:21:13.629Z,14.13
2019-02-07T02:23:42.885Z,14.00
2019-02-07T02:26:12.764Z,14.00
2019-02-07T02:28:43.143Z,14.47
2019-02-07T02:31:12.853Z,13.93
2019-02-07T02:33:42.081Z,14.83
2019-02-07T02:36:11.693Z,14.83
2019-02-07T02:38:41.213Z,15.27
2019-02-07T02:41:10.584Z,15.10
2019-02-07T02:43:40.336Z,15.80
2019-02-07T02:46:09.754Z,15.33
2019-02-07T02:48:38.975Z,15.80
2019-02-07T02:51:08.215Z,15.73
2019-02-07T02:53:37.497Z,14.83
2019-02-07T02:56:06.905Z,15.83
2019-02-07T02:58:36.436Z,15.93
2019-02-07T03:01:21.546Z,15.93
2019-02-07T03:04:18.763Z,15.33
2019-02-07T03:07:05.733Z,14.67
2019-02-07T03:10:03.064Z,15.53
2019-02-07T03:12:49.676Z,16.00
2019-02-07T03:15:56.165Z,16.23
2019-02-07T03:18:39.785Z,16.20
2019-02-07T03:21:26.787Z,15.90
2019-02-07T03:24:11.906Z,14.80
2019-02-07T03:27:05.146Z,16.57
2019-02-07T03:29:51.804Z,15.83
2019-02-07T03:32:41.120Z,16.93
2019-02-07T03:35:41.624Z,15.20
2019-02-07T03:38:35.550Z,17.43
2019-02-07T03:41:23.940Z,15.57
2019-02-07T03:44:06.409Z,16.93
2019-02-07T03:46:57.943Z,14.87
2019-02-07T03:49:51.873Z,17.47
2019-02-07T03:52:40.062Z,17.07
2019-02-07T03:55:35.158Z,17.40
2019-02-07T03:58:29.805Z,15.83
2019-02-07T04:01:35.898Z,17.67
2019-02-07T04:04:22.929Z,17.27
2019-02-07T04:07:14.006Z,16.47
2019-02-07T04:10:00.010Z,16.67
2019-02-07T04:12:47.034Z,16.17
2019-02-07T04:15:29.074Z,16.43
2019-02-07T04:18:20.197Z,16.10
2019-02-07T04:21:06.336Z,16.80
2019-02-07T04:23:53.433Z,16.20
2019-02-07T04:26:50.614Z,17.03
2019-02-07T04:29:33.756Z,17.37
2019-02-07T04:32:20.953Z,15.87
2019-02-07T04:35:12.067Z,16.67
2019-02-07T04:37:57.629Z,16.63
2019-02-07T04:40:46.176Z,16.30
2019-02-07T04:43:30.499Z,17.77
2019-02-07T04:46:26.702Z,17.07
2019-02-07T04:49:03.873Z,17.03
2019-02-07T04:51:54.898Z,16.67
2019-02-07T04:54:41.731Z,16.53
2019-02-07T04:57:39.153Z,18.03
2019-02-07T05:00:28.305Z,16.77
2019-02-07T05:03:16.481Z,16.57
2019-02-07T05:06:17.305Z,17.37
2019-02-07T05:09:11.339Z,17.97
2019-02-07T05:12:05.661Z,17.17
2019-02-07T05:15:11.960Z,15.90
2019-02-07T05:18:00.461Z,15.93
2019-02-07T05:20:42.178Z,15.87
2019-02-07T05:23:33.243Z,16.53
2019-02-07T05:26:30.592Z,17.53
2019-02-07T05:29:17.409Z,16.87
2019-02-07T05:31:59.291Z,16.30
2019-02-07T05:34:39.002Z,18.00
2019-02-07T05:37:30.297Z,17.13
2019-02-07T05:40:17.247Z,17.60
2019-02-07T05:43:11.566Z,15.60
2019-02-07T05:46:06.665Z,16.93
2019-02-07T05:48:51.357Z,16.53
2019-02-07T05:51:51.895Z,17.20
2019-02-07T05:54:39.061Z,17.10
2019-02-07T05:57:39.546Z,16.93
2019-02-07T06:00:34.932Z,17.17
2019-02-07T06:03:24.060Z,16.87
2019-02-07T06:06:11.713Z,16.07
2019-02-07T06:09:09.109Z,16.43
2019-02-07T06:11:57.444Z,16.90
2019-02-07T06:14:44.073Z,16.77
2019-02-07T06:17:35.376Z,17.73
2019-02-07T06:20:33.412Z,17.87
2019-02-07T06:23:39.644Z,16.83
2019-02-07T06:26:21.283Z,16.07
2019-02-07T06:29:14.969Z,16.77
2019-02-07T06:31:56.877Z,17.27
2019-02-07T06:34:46.802Z,16.93
2019-02-07T06:37:35.056Z,17.67
2019-02-07T06:40:20.962Z,16.17
2019-02-07T06:43:15.154Z,16.50
2019-02-07T06:45:56.073Z,17.10
2019-02-07T06:48:59.222Z,17.30
2019-02-07T06:52:05.697Z,17.33
2019-02-07T06:54:52.393Z,16.67
2019-02-07T06:57:46.716Z,17.07
2019-02-07T07:00:29.505Z,17.47
2019-02-07T07:03:30.517Z,17.53
2019-02-07T07:06:17.262Z,17.00
2019-02-07T07:09:14.421Z,14.20
2019-02-07T07:11:59.658Z,14.67
2019-02-07T07:14:49.287Z,13.80
2019-02-07T07:17:36.666Z,14.57
2019-02-07T07:20:21.088Z,14.77
2019-02-07T07:23:08.426Z,13.53
2019-02-07T07:26:11.851Z,13.70
2019-02-07T07:29:18.214Z,14.33
2019-02-07T07:32:05.133Z,14.20
2019-02-07T07:35:00.099Z,14.27
2019-02-07T07:37:41.726Z,15.30
2019-02-07T07:40:29.478Z,14.40
2019-02-07T07:43:18.293Z,14.13
2019-02-07T07:46:04.877Z,14.07
2019-02-07T07:48:51.812Z,13.83
2019-02-07T07:51:38.274Z,14.00
2019-02-07T07:54:29.583Z,14.67
2019-02-07T07:57:23.969Z,14.60
2019-02-07T08:00:10.905Z,13.73
2019-02-07T08:03:02.010Z,15.73
2019-02-07T08:05:49.187Z,12.80
2019-02-07T08:08:49.570Z,15.40
2019-02-07T08:11:28.290Z,14.63
2019-02-07T08:14:15.471Z,14.90
2019-02-07T08:17:02.256Z,14.70
2019-02-07T08:19:49.405Z,15.30
2019-02-07T08:22:37.688Z,15.47
2019-02-07T08:25:45.166Z,14.10
2019-02-07T08:28:37.764Z,14.93
2019-02-07T08:31:26.333Z,15.17
2019-02-07T08:34:13.097Z,14.30
2019-02-07T08:37:07.400Z,14.00
2019-02-07T08:40:01.858Z,15.50
2019-02-07T08:42:53.509Z,14.50
2019-02-07T08:45:42.690Z,14.73
2019-02-07T08:48:29.675Z,14.70
2019-02-07T08:51:05.444Z,14.37
2019-02-07T08:53:57.921Z,15.63
2019-02-07T08:56:35.458Z,15.30
2019-02-07T08:59:22.345Z,14.03
2019-02-07T09:02:17.809Z,14.17
2019-02-07T09:05:04.446Z,14.37
2019-02-07T09:07:51.216Z,14.40
2019-02-07T09:10:52.634Z,15.73
2019-02-07T09:13:40.839Z,15.90
2019-02-07T09:16:27.825Z,14.53
2019-02-07T09:19:18.515Z,14.93
2019-02-07T09:22:05.261Z,14.00
2019-02-07T09:24:52.016Z,13.67
2019-02-07T09:27:52.430Z,14.20
2019-02-07T09:30:41.299Z,14.97
2019-02-07T09:33:29.533Z,15.63
2019-02-07T09:36:20.598Z,15.50
2019-02-07T09:39:29.786Z,15.47
2019-02-07T09:42:16.493Z,14.20
2019-02-07T09:45:03.441Z,16.07
2019-02-07T09:47:59.113Z,15.60
2019-02-07T09:50:46.479Z,16.50
2019-02-07T09:53:40.886Z,15.13
2019-02-07T09:56:27.531Z,15.67
2019-02-07T09:59:14.439Z,15.53
2019-02-07T10:02:02.656Z,15.87
2019-02-07T10:04:59.890Z,15.87
2019-02-07T10:07:48.593Z,16.20
2019-02-07T10:10:39.955Z,15.60
2019-02-07T10:13:26.945Z,15.70
2019-02-07T10:16:06.090Z,16.30
2019-02-07T10:18:52.964Z,16.07
2019-02-07T10:21:43.920Z,15.33
2019-02-07T10:24:30.528Z,15.77
2019-02-07T10:27:14.770Z,15.93
2019-02-07T10:30:09.266Z,14.40
2019-02-07T10:32:50.554Z,15.43
2019-02-07T10:35:44.618Z,16.83
2019-02-07T10:38:32.625Z,15.37
2019-02-07T10:41:21.050Z,15.90
2019-02-07T10:44:08.267Z,16.80
2019-02-07T10:46:56.197Z,13.93
2019-02-07T10:49:45.981Z,14.57
2019-02-07T10:52:30.948Z,15.70
2019-02-07T10:55:19.260Z,16.17
2019-02-07T10:58:13.493Z,17.13
2019-02-07T11:01:04.862Z,16.63
2019-02-07T11:03:53.281Z,16.53
2019-02-07T11:06:39.866Z,19.27
2019-02-07T11:09:25.678Z,16.37
2019-02-07T11:12:13.079Z,18.20
2019-02-07T11:14:59.675Z,16.97
2019-02-07T11:17:46.979Z,17.23
2019-02-07T11:20:28.838Z,17.33
2019-02-07T11:23:06.617Z,17.33
2019-02-07T11:25:51.998Z,15.90
2019-02-07T11:28:35.209Z,16.10
2019-02-07T11:31:26.049Z,15.63
2019-02-07T11:34:15.818Z,14.77
2019-02-07T11:37:08.306Z,13.37
2019-02-07T11:39:56.137Z,13.53
2019-02-07T11:42:46.989Z,15.37
2019-02-07T11:45:47.334Z,13.87
2019-02-07T11:48:34.708Z,12.90
2019-02-07T11:51:32.180Z,13.40
2019-02-07T11:54:13.806Z,14.57
2019-02-07T11:57:00.426Z,14.37
2019-02-07T11:59:38.002Z,11.70
2019-02-07T12:02:41.459Z,13.80
2019-02-07T12:05:48.052Z,15.07
2019-02-07T12:08:51.410Z,12.90
2019-02-07T12:11:38.411Z,12.70
2019-02-07T12:14:15.499Z,11.87
2019-02-07T12:17:15.091Z,12.20
2019-02-07T12:20:03.508Z,11.37
2019-02-07T12:22:48.242Z,11.10
2019-02-07T12:25:35.079Z,11.27
2019-02-07T12:28:38.149Z,12.20
2019-02-07T12:31:15.415Z,12.07
2019-02-07T12:34:02.274Z,13.07
2019-02-07T12:36:40.245Z,12.07
2019-02-07T12:39:21.287Z,11.60
2019-02-07T12:42:09.893Z,13.07
2019-02-07T12:45:01.242Z,11.73
2019-02-07T12:47:47.911Z,10.43
2019-02-07T12:50:48.213Z,11.20
2019-02-07T12:53:28.267Z,10.30
2019-02-07T12:56:22.337Z,10.13
2019-02-07T12:59:06.945Z,11.37
2019-02-07T13:02:07.751Z,10.43
2019-02-07T13:04:54.453Z,10.20
2019-02-07T13:07:48.693Z,10.07
2019-02-07T13:10:36.769Z,10.10
2019-02-07T13:13:26.568Z,10.00
2019-02-07T13:16:29.856Z,10.07
2019-02-07T13:19:27.937Z,10.77
2019-02-07T13:22:22.042Z,10.43
2019-02-07T13:25:16.345Z,10.70
2019-02-07T13:28:07.453Z,10.40
2019-02-07T13:30:58.840Z,10.20
2019-02-07T13:33:45.767Z,10.37
2019-02-07T13:36:37.283Z,9.73
2019-02-07T13:39:37.702Z,9.57
2019-02-07T13:42:29.686Z,10.07
2019-02-07T13:45:21.001Z,12.03
2019-02-07T13:48:03.456Z,10.40
2019-02-07T13:50:54.910Z,9.70
2019-02-07T13:53:38.783Z,10.30
2019-02-07T13:56:42.351Z,10.00
2019-02-07T13:59:36.665Z,11.03
2019-02-07T14:02:23.717Z,11.57
2019-02-07T14:05:11.281Z,10.40
2019-02-07T14:08:12.060Z,10.27
2019-02-07T14:11:06.459Z,10.23
2019-02-07T14:13:53.677Z,10.30
2019-02-07T14:16:54.401Z,11.13
2019-02-07T14:19:36.804Z,9.53
2019-02-07T14:22:35.436Z,9.47
2019-02-07T14:25:16.693Z,9.60
2019-02-07T14:28:03.784Z,9.93
2019-02-07T14:30:50.396Z,9.33
2019-02-07T14:33:38.692Z,10.63
2019-02-07T14:36:25.863Z,11.03
2019-02-07T14:39:23.468Z,11.70
2019-02-07T14:42:00.519Z,9.93
2019-02-07T14:45:06.821Z,11.10
2019-02-07T14:47:36.529Z,10.37
2019-02-07T14:50:14.509Z,10.97
2019-02-07T14:52:38.917Z,10.17
2019-02-07T14:55:08.985Z,11.00
2019-02-07T14:57:38.635Z,9.83
2019-02-07T15:00:11.782Z,9.43
2019-02-07T15:02:41.057Z,10.60
2019-02-07T15:05:11.284Z,8.60
2019-02-07T15:07:40.694Z,9.83
2019-02-07T15:10:12.828Z,10.33
2019-02-07T15:12:42.198Z,8.90
2019-02-07T15:15:13.197Z,10.13
2019-02-07T15:17:42.490Z,9.67
2019-02-07T15:20:12.017Z,9.50
2019-02-07T15:22:41.817Z,9.33
2019-02-07T15:25:11.879Z,9.40
2019-02-07T15:27:41.362Z,9.33
2019-02-07T15:30:13.713Z,9.67
2019-02-07T15:32:42.975Z,9.93
2019-02-07T15:35:23.591Z,10.40
2019-02-07T15:37:53.082Z,11.07
2019-02-07T15:40:25.472Z,9.67
2019-02-07T15:42:55.059Z,11.50
2019-02-07T15:45:24.597Z,10.00
2019-02-07T15:47:53.973Z,9.70
2019-02-07T15:50:24.273Z,9.37
2019-02-07T15:52:55.712Z,9.90
2019-02-07T15:55:25.214Z,9.90
2019-02-07T15:57:54.863Z,8.63
2019-02-07T16:00:42.509Z,8.23
2019-02-07T16:03:16.361Z,7.10
2019-02-07T16:05:45.915Z,8.50
2019-02-07T16:08:15.213Z,8.50
2019-02-07T16:10:46.968Z,8.93
2019-02-07T16:13:16.321Z,9.83
2019-02-07T16:15:45.698Z,8.77
2019-02-07T16:18:14.929Z,8.40
2019-02-07T16:20:48.874Z,8.87
2019-02-07T16:23:16.134Z,9.27
2019-02-07T16:25:45.408Z,8.87
2019-02-07T16:28:14.718Z,10.87
2019-02-07T16:30:44.173Z,9.80
2019-02-07T16:33:13.955Z,10.50
2019-02-07T16:35:43.346Z,10.80
2019-02-07T16:38:12.717Z,11.17
2019-02-07T16:40:42.029Z,10.33
2019-02-07T16:43:11.482Z,9.13
2019-02-07T16:45:41.317Z,9.33
2019-02-07T16:48:10.827Z,9.63
2019-02-07T16:50:40.097Z,10.03
2019-02-07T16:53:09.626Z,9.97
2019-02-07T16:55:38.907Z,9.97
2019-02-07T16:58:08.169Z,9.97
2019-02-07T17:00:38.040Z,10.77
2019-02-07T17:03:07.646Z,10.83
2019-02-07T17:05:38.058Z,10.37
2019-02-07T17:08:08.638Z,12.13
2019-02-07T17:10:38.304Z,11.03
2019-02-07T17:13:09.476Z,10.30
2019-02-07T17:15:39.166Z,10.57
2019-02-07T17:18:08.517Z,12.60
2019-02-07T17:20:37.965Z,11.70
2019-02-07T17:23:07.832Z,12.20
2019-02-07T17:25:37.589Z,13.27
2019-02-07T17:28:07.647Z,12.23
2019-02-07T17:30:37.277Z,13.20
2019-02-07T17:33:06.607Z,13.87
2019-02-07T17:35:38.999Z,12.67
2019-02-07T17:38:08.380Z,13.50
2019-02-07T17:40:39.013Z,13.60
2019-02-07T17:43:08.666Z,13.57
2019-02-07T17:45:37.969Z,13.77
2019-02-07T17:48:07.529Z,15.50
2019-02-07T17:50:36.982Z,13.53
2019-02-07T17:53:07.099Z,14.70
2019-02-07T17:55:37.195Z,14.90
2019-02-07T17:58:07.355Z,14.43
2019-02-07T18:00:52.421Z,14.43
2019-02-07T18:03:21.789Z,14.37
2019-02-07T18:05:51.289Z,14.50
2019-02-07T18:08:21.094Z,13.47
2019-02-07T18:10:51.569Z,14.47
2019-02-07T18:13:20.885Z,13.93
2019-02-07T18:15:50.161Z,14.47
2019-02-07T18:18:19.716Z,13.90
2019-02-07T18:20:49.498Z,16.27
2019-02-07T18:23:18.840Z,14.03
2019-02-07T18:25:49.245Z,14.90
2019-02-07T18:28:18.830Z,14.20
2019-02-07T18:30:48.265Z,14.20
2019-02-07T18:33:19.070Z,13.97
2019-02-07T18:35:48.932Z,13.20
2019-02-07T18:38:18.257Z,13.17
2019-02-07T18:40:47.641Z,13.93
2019-02-07T18:43:16.941Z,14.03
2019-02-07T18:45:46.381Z,12.40
2019-02-07T18:48:15.801Z,14.00
2019-02-07T18:50:46.542Z,13.10
2019-02-07T18:53:15.787Z,13.80
2019-02-07T18:55:45.294Z,15.83
2019-02-07T18:58:14.563Z,13.60
2019-02-07T19:00:43.769Z,14.07
2019-02-07T19:03:13.127Z,13.43
2019-02-07T19:05:42.584Z,14.37
2019-02-07T19:08:11.905Z,13.97
2019-02-07T19:10:41.700Z,17.33
2019-02-07T19:13:11.715Z,14.70
2019-02-07T19:15:43.922Z,14.50
2019-02-07T19:18:13.184Z,13.93
2019-02-07T19:20:42.818Z,12.67
2019-02-07T19:23:12.812Z,13.30
2019-02-07T19:25:42.473Z,13.33
2019-02-07T19:28:11.861Z,12.60
2019-02-07T19:30:41.349Z,12.97
2019-02-07T19:33:10.716Z,14.03
2019-02-07T19:35:40.048Z,12.67
2019-02-07T19:38:09.313Z,13.17
2019-02-07T19:40:40.071Z,13.83
2019-02-07T19:43:09.570Z,12.97
2019-02-07T19:45:38.903Z,13.80
2019-02-07T19:48:08.983Z,12.40
2019-02-07T19:50:38.444Z,13.40
2019-02-07T19:53:07.709Z,12.73
2019-02-07T19:55:37.351Z,12.47
2019-02-07T19:58:06.856Z,13.40
2019-02-07T20:00:39.325Z,12.37
2019-02-07T20:03:07.915Z,13.07
2019-02-07T20:05:37.528Z,11.40
2019-02-07T20:08:06.997Z,13.73
2019-02-07T20:10:36.537Z,11.50
2019-02-07T20:13:06.030Z,12.87
2019-02-07T20:15:37.165Z,12.27
2019-02-07T20:18:08.056Z,11.97
2019-02-07T20:20:38.300Z,12.03
2019-02-07T20:23:07.837Z,12.53
2019-02-07T20:25:37.445Z,12.40
2019-02-07T20:28:06.700Z,12.37
2019-02-07T20:30:40.714Z,12.80
2019-02-07T20:33:10.635Z,11.63
2019-02-07T20:35:39.992Z,11.70
2019-02-07T20:38:10.141Z,11.93
2019-02-07T20:40:39.901Z,11.83
2019-02-07T20:43:09.776Z,10.50
2019-02-07T20:45:39.232Z,10.20
2019-02-07T20:48:09.222Z,10.83
2019-02-07T20:50:39.138Z,10.67
2019-02-07T20:53:11.230Z,10.47
2019-02-07T20:55:40.996Z,10.07
2019-02-07T20:58:10.548Z,11.57
2019-02-07T21:00:40.539Z,10.30
2019-02-07T21:03:09.965Z,9.60
2019-02-07T21:05:39.515Z,9.17
2019-02-07T21:08:08.773Z,10.40
2019-02-07T21:10:38.200Z,9.67
2019-02-07T21:13:07.911Z,9.93
2019-02-07T21:15:37.701Z,9.10
2019-02-07T21:18:07.330Z,8.90
2019-02-07T21:20:36.874Z,9.20
2019-02-07T21:23:06.495Z,8.47
2019-02-07T21:25:42.037Z,7.33
2019-02-07T21:28:11.788Z,7.90
2019-02-07T21:30:41.143Z,7.77
2019-02-07T21:33:10.851Z,7.80
2019-02-07T21:35:40.142Z,8.23
2019-02-07T21:38:09.662Z,8.20
2019-02-07T21:40:39.293Z,7.57
2019-02-07T21:43:08.942Z,7.40
2019-02-07T21:45:38.171Z,7.93
2019-02-07T21:48:10.201Z,8.40
2019-02-07T21:50:39.714Z,7.17
2019-02-07T21:53:09.351Z,8.67
2019-02-07T21:55:38.583Z,8.13
2019-02-07T21:58:08.616Z,8.40
2019-02-07T22:00:39.782Z,8.10
2019-02-07T22:03:10.797Z,7.83
2019-02-07T22:05:40.149Z,7.07
2019-02-07T22:08:10.003Z,7.60
2019-02-07T22:10:39.383Z,7.33
2019-02-07T22:13:08.770Z,7.00
2019-02-07T22:15:37.956Z,7.83
2019-02-07T22:18:09.321Z,6.97
2019-02-07T22:20:38.546Z,7.43
2019-02-07T22:23:07.949Z,7.17
2019-02-07T22:25:37.124Z,7.30
2019-02-07T22:28:07.121Z,6.40
2019-02-07T22:30:36.863Z,6.57
2019-02-07T22:33:06.693Z,5.67
2019-02-07T22:35:36.032Z,6.73
2019-02-07T22:38:06.527Z,4.87
2019-02-07T22:40:35.784Z,5.33
2019-02-07T22:43:05.530Z,5.70
2019-02-07T22:45:35.251Z,5.03
2019-02-07T22:48:05.029Z,5.77
2019-02-07T22:50:34.299Z,4.77
2019-02-07T22:53:03.996Z,5.40
2019-02-07T22:55:33.243Z,5.43
2019-02-07T22:58:02.544Z,4.90
2019-02-07T23:01:25.264Z,5.27
2019-02-07T23:03:59.203Z,5.00
2019-02-07T23:06:28.492Z,4.33
2019-02-07T23:08:57.867Z,5.13
2019-02-07T23:11:27.157Z,4.67
2019-02-07T23:13:56.480Z,4.90
2019-02-07T23:16:25.834Z,4.70
2019-02-07T23:18:55.112Z,4.67
2019-02-07T23:21:24.423Z,4.20
2019-02-07T23:23:53.808Z,4.70
2019-02-07T23:26:23.215Z,4.37
2019-02-07T23:28:52.512Z,4.90
2019-02-07T23:31:21.871Z,4.67
2019-02-07T23:33:51.529Z,4.50
2019-02-07T23:36:21.188Z,4.67
2019-02-07T23:38:50.538Z,4.80
2019-02-07T23:41:19.852Z,5.57
2019-02-07T23:43:49.103Z,5.03
2019-02-07T23:46:18.638Z,5.37
2019-02-07T23:48:48.136Z,5.33
2019-02-07T23:51:17.458Z,5.57
2019-02-07T23:53:46.737Z,5.30
2019-02-07T23:56:16.135Z,5.37
2019-02-07T23:58:45.394Z,5.20
